Terminal Aerodrome Forecast
Issued by NWS Los Angeles, CA

Home | Current Version | Previous Version | Text Only | Print | Product List | Glossary On
Versions: 1 2 3 4 5 6 7 8 9 10 11 12 13 14 15 16 17 18 19 20 21 22 23 24 25 26
000
FTUS46 KLOX 040220 AAB
TAFSMX
TAF AMD
KSMX 040220Z 0402/0424 34007KT P6SM BKN008
     FM040700 VRB03KT 4SM BR OVC006
     FM041100 00000KT 1SM BR OVC004
     FM041600 VRB03KT 6SM HZ OVC007
     FM041900 28008KT P6SM SCT010
     FM042200 29014KT P6SM SKC=

USA.gov is the U.S. government's official web portal to all federal, state and local government web resources and services.